createdAt,value
2023-12-31T00:02:14.858Z,48988.94
2023-12-31T00:04:42.465Z,48981.13
2023-12-31T00:07:09.212Z,48973.28
2023-12-31T00:09:35.937Z,48981.13
2023-12-31T00:17:23.131Z,48973.28
2023-12-31T00:19:50.259Z,48973.28
2023-12-31T00:22:17.519Z,48977.19
2023-12-31T00:24:44.494Z,48957.59
2023-12-31T00:27:11.663Z,48961.53
2023-12-31T00:29:38.547Z,48965.44
2023-12-31T00:40:02.502Z,48965.44
2023-12-31T00:45:10.812Z,48973.28
2023-12-31T00:47:37.594Z,48957.59
2023-12-31T00:50:04.677Z,48969.38
2023-12-31T00:55:39.453Z,48977.19
2023-12-31T00:58:07.829Z,48975.25
2023-12-31T01:00:34.660Z,48979.16
2023-12-31T01:09:15.110Z,48973.28
2023-12-31T01:17:14.319Z,48981.13
2023-12-31T01:19:42.166Z,48977.19
2023-12-31T01:22:09.145Z,48985.03
2023-12-31T01:24:36.097Z,48985.03
2023-12-31T01:27:03.226Z,48969.38
2023-12-31T01:29:30.405Z,48981.13
2023-12-31T01:34:35.179Z,48977.19
2023-12-31T01:37:02.109Z,48985.03
2023-12-31T01:39:30.254Z,48981.13
2023-12-31T01:53:16.600Z,48981.13
2023-12-31T01:55:44.765Z,48977.19
2023-12-31T01:58:11.943Z,48975.25
2023-12-31T02:00:39.315Z,48977.19
2023-12-31T02:06:06.068Z,48977.19
2023-12-31T02:08:32.982Z,48977.19
2023-12-31T02:10:59.942Z,48973.28
2023-12-31T02:13:27.076Z,48965.44
2023-12-31T02:15:54.761Z,48965.44
2023-12-31T02:18:21.715Z,48961.53
2023-12-31T02:20:49.135Z,48973.28
2023-12-31T02:26:19.741Z,48969.38
2023-12-31T02:28:46.573Z,48977.19
2023-12-31T02:31:13.512Z,48973.28
2023-12-31T02:33:40.671Z,48965.44
2023-12-31T02:36:08.048Z,48969.38
2023-12-31T02:38:34.836Z,48973.28
2023-12-31T02:41:01.854Z,48965.44
2023-12-31T02:48:47.192Z,48971.31
2023-12-31T02:54:01.604Z,48965.44
2023-12-31T02:56:29.187Z,48965.44
2023-12-31T02:58:56.249Z,48965.44
2023-12-31T03:04:20.365Z,48985.03
2023-12-31T03:06:52.681Z,48969.38
2023-12-31T03:09:20.590Z,48977.19
2023-12-31T03:11:49.000Z,48969.38
2023-12-31T03:14:15.857Z,48971.31
2023-12-31T03:16:46.842Z,48977.19
2023-12-31T03:19:17.465Z,48971.31
2023-12-31T03:21:44.674Z,48975.25
2023-12-31T03:24:12.648Z,48973.28
2023-12-31T03:26:39.417Z,48965.44
2023-12-31T03:29:06.282Z,48967.41
2023-12-31T03:31:33.291Z,48975.25
2023-12-31T03:34:00.406Z,48965.44
2023-12-31T03:36:27.175Z,48977.19
2023-12-31T03:38:56.038Z,48969.38
2023-12-31T03:41:23.037Z,48973.28
2023-12-31T03:43:50.111Z,48969.38
2023-12-31T03:46:17.498Z,48969.38
2023-12-31T03:48:44.491Z,48977.19
2023-12-31T03:53:57.558Z,48969.38
2023-12-31T03:56:24.896Z,48961.53
2023-12-31T03:58:55.270Z,48969.38
2023-12-31T04:06:45.379Z,48961.53
2023-12-31T04:09:12.640Z,48965.44
2023-12-31T04:14:33.092Z,48973.28
2023-12-31T04:17:00.499Z,48975.25
2023-12-31T04:19:28.304Z,48971.31
2023-12-31T04:24:42.918Z,48965.44
2023-12-31T04:27:10.253Z,48961.53
2023-12-31T04:29:37.308Z,48965.44
2023-12-31T04:32:04.562Z,48969.38
2023-12-31T04:34:32.116Z,48977.19
2023-12-31T04:36:59.028Z,48963.50
2023-12-31T04:39:25.792Z,48977.19
2023-12-31T04:41:53.124Z,48965.44
2023-12-31T04:44:20.496Z,48985.03
2023-12-31T04:46:48.424Z,48975.25
2023-12-31T04:49:16.084Z,48969.38
2023-12-31T04:51:44.097Z,48961.53
2023-12-31T04:54:11.708Z,48961.53
2023-12-31T04:56:39.372Z,48963.50
2023-12-31T04:59:06.154Z,48969.38
2023-12-31T05:01:35.667Z,48977.19
2023-12-31T05:04:03.273Z,48965.44
2023-12-31T05:06:30.634Z,48979.16
2023-12-31T05:08:58.034Z,48981.13
2023-12-31T05:38:25.610Z,48969.38
2023-12-31T05:40:52.789Z,48965.44
2023-12-31T05:46:14.204Z,48971.31
2023-12-31T05:48:41.600Z,48965.44
2023-12-31T05:51:11.057Z,48973.28
2023-12-31T05:53:38.090Z,48965.44
2023-12-31T05:56:06.497Z,48957.59
2023-12-31T05:58:33.422Z,48969.38
2023-12-31T06:01:01.392Z,48965.44
2023-12-31T06:03:30.069Z,48961.53
2023-12-31T06:05:56.845Z,48967.41
2023-12-31T06:08:23.936Z,48977.19
2023-12-31T06:10:50.952Z,48961.53
2023-12-31T06:13:18.392Z,48973.28
2023-12-31T06:15:45.705Z,48957.59
2023-12-31T06:18:13.285Z,48955.66
2023-12-31T06:20:40.692Z,48957.59
2023-12-31T06:25:50.807Z,48961.53
2023-12-31T06:28:17.473Z,48957.59
2023-12-31T06:30:44.058Z,48965.44
2023-12-31T06:33:10.890Z,48955.66
2023-12-31T06:35:38.022Z,48955.66
2023-12-31T06:38:05.946Z,48949.78
2023-12-31T06:40:34.584Z,48953.69
2023-12-31T06:43:02.206Z,48947.81
2023-12-31T06:45:29.578Z,48953.69
2023-12-31T06:47:56.360Z,48953.69
2023-12-31T06:50:23.537Z,48949.78
2023-12-31T07:03:34.417Z,48949.78
2023-12-31T07:06:01.552Z,48963.50
2023-12-31T07:08:28.932Z,48969.38
2023-12-31T07:10:56.808Z,48953.69
2023-12-31T07:16:05.772Z,48961.53
2023-12-31T07:18:35.225Z,48957.59
2023-12-31T07:21:04.468Z,48961.53
2023-12-31T07:35:28.395Z,48965.44
2023-12-31T07:37:58.846Z,48977.19
2023-12-31T07:40:25.703Z,48965.44
2023-12-31T07:42:56.399Z,48969.38
2023-12-31T07:45:22.839Z,48975.25
2023-12-31T07:47:50.067Z,48963.50
2023-12-31T07:50:16.677Z,48965.44
2023-12-31T07:52:43.182Z,48963.50
2023-12-31T07:55:10.663Z,48965.44
2023-12-31T07:57:37.916Z,48961.53
2023-12-31T08:00:08.355Z,48963.50
2023-12-31T08:08:21.079Z,48957.59
2023-12-31T08:10:48.000Z,48965.44
2023-12-31T08:15:59.493Z,48953.69
2023-12-31T08:18:26.745Z,48957.59
2023-12-31T08:20:53.947Z,48953.69
2023-12-31T08:23:21.370Z,48947.81
2023-12-31T08:25:51.394Z,48951.72
2023-12-31T08:28:18.349Z,48938.03
2023-12-31T08:30:44.921Z,48943.91
2023-12-31T08:33:12.152Z,48951.72
2023-12-31T08:35:42.435Z,48939.97
2023-12-31T08:38:10.425Z,48947.81
2023-12-31T08:40:37.430Z,48938.03
2023-12-31T13:47:14.734Z,48988.94
2023-12-31T13:49:41.848Z,48988.94
2023-12-31T14:23:34.530Z,48979.16
2023-12-31T14:26:01.802Z,48981.13
2023-12-31T14:28:30.939Z,48977.19
2023-12-31T14:31:00.275Z,48983.06
2023-12-31T14:33:27.411Z,48992.88
2023-12-31T14:35:57.606Z,48988.94
2023-12-31T14:38:24.735Z,48988.94
2023-12-31T14:40:51.996Z,48977.19
2023-12-31T15:07:43.842Z,48988.94
2023-12-31T15:10:10.970Z,48994.84
2023-12-31T15:12:38.521Z,48990.91
2023-12-31T15:15:05.722Z,49004.63
2023-12-31T15:17:32.667Z,49008.53
2023-12-31T15:19:59.769Z,48985.03
2023-12-31T15:22:26.795Z,49004.63
2023-12-31T15:24:53.690Z,48992.88
2023-12-31T15:27:20.559Z,49006.59
2023-12-31T15:29:50.039Z,49004.63
2023-12-31T15:32:17.506Z,48996.78
2023-12-31T15:34:44.365Z,48992.88
2023-12-31T15:37:17.549Z,48988.94
2023-12-31T15:39:44.587Z,48990.91
2023-12-31T15:42:11.443Z,48987.00
2023-12-31T15:44:38.048Z,49014.41
2023-12-31T15:47:04.987Z,48996.78
2023-12-31T15:49:34.139Z,48992.88
2023-12-31T15:52:01.309Z,48994.84
2023-12-31T15:54:28.519Z,48992.88
2023-12-31T15:56:55.647Z,48985.03
2023-12-31T15:59:22.423Z,48992.88
2023-12-31T16:01:49.425Z,49000.72
2023-12-31T16:04:16.454Z,48996.78
2023-12-31T16:06:44.436Z,49012.47
2023-12-31T16:09:11.861Z,49006.59
2023-12-31T16:11:40.738Z,49000.72
2023-12-31T16:14:08.119Z,48994.84
2023-12-31T16:16:35.237Z,49004.63
2023-12-31T16:19:02.797Z,48988.94
2023-12-31T16:21:29.537Z,48992.88
2023-12-31T16:23:56.337Z,48988.94
2023-12-31T16:26:22.931Z,49002.66
2023-12-31T16:28:50.065Z,49014.41
2023-12-31T16:31:17.340Z,49008.53
2023-12-31T16:33:44.305Z,49026.19
2023-12-31T16:36:11.666Z,49012.47
2023-12-31T16:38:39.015Z,49000.72
2023-12-31T16:41:05.824Z,48998.75
2023-12-31T16:43:33.305Z,49012.47
2023-12-31T16:46:00.671Z,48996.78
2023-12-31T16:48:27.749Z,48994.84
2023-12-31T16:50:54.583Z,49002.66
2023-12-31T16:53:22.491Z,48996.78
2023-12-31T16:55:49.657Z,49004.63
2023-12-31T16:58:17.824Z,48994.84
2023-12-31T17:00:45.584Z,48992.88
2023-12-31T17:03:12.751Z,48992.88
2023-12-31T17:05:41.484Z,49006.59
2023-12-31T17:08:09.825Z,48992.88
2023-12-31T17:10:37.102Z,48977.19
2023-12-31T17:15:39.510Z,48988.94
2023-12-31T17:18:06.391Z,48996.78
2023-12-31T17:20:33.078Z,49000.72
2023-12-31T17:22:59.592Z,48992.88
2023-12-31T17:25:26.037Z,48994.84
2023-12-31T17:27:52.484Z,48996.78
2023-12-31T17:33:08.885Z,48996.78
2023-12-31T17:35:38.012Z,49004.63
2023-12-31T17:38:04.987Z,48992.88
2023-12-31T17:40:31.552Z,49008.53
2023-12-31T17:42:58.095Z,49012.47
2023-12-31T17:45:24.557Z,49004.63
2023-12-31T17:47:51.204Z,48990.91
2023-12-31T17:50:22.106Z,48988.94
2023-12-31T17:52:50.253Z,48992.88
2023-12-31T17:55:16.716Z,49000.72
2023-12-31T17:57:43.170Z,49004.63
2023-12-31T18:00:09.957Z,48994.84
2023-12-31T18:02:36.395Z,49008.53
2023-12-31T18:05:02.849Z,49016.38
2023-12-31T18:07:29.301Z,49004.63
2023-12-31T18:09:55.727Z,49004.63
2023-12-31T18:12:23.702Z,49000.72
2023-12-31T18:14:50.185Z,48985.03
2023-12-31T18:17:18.413Z,49000.72
2023-12-31T18:19:45.601Z,48977.19
2023-12-31T18:22:12.155Z,48981.13
2023-12-31T18:24:38.624Z,48981.13
2023-12-31T18:27:05.288Z,48983.06
2023-12-31T18:29:31.689Z,48981.13
2023-12-31T18:31:58.227Z,48973.28
2023-12-31T18:34:24.676Z,48981.13
2023-12-31T18:36:52.617Z,48957.59
2023-12-31T18:39:20.426Z,48967.41
2023-12-31T18:41:47.404Z,48979.16
2023-12-31T18:44:13.948Z,48971.31
2023-12-31T18:46:41.830Z,48975.25
2023-12-31T18:49:08.765Z,48967.41
2023-12-31T18:51:42.936Z,48965.44
2023-12-31T18:54:10.578Z,48957.59
2023-12-31T18:56:37.415Z,48969.38
2023-12-31T18:59:04.747Z,48949.78
2023-12-31T19:01:33.657Z,48959.56
2023-12-31T19:04:01.365Z,48955.66
2023-12-31T19:06:28.445Z,48969.38
2023-12-31T19:08:55.129Z,48961.53
2023-12-31T19:11:22.518Z,48949.78
2023-12-31T19:13:49.042Z,48953.69
2023-12-31T19:16:15.472Z,48949.78
2023-12-31T19:18:41.960Z,48949.78
2023-12-31T19:21:08.426Z,48941.94
2023-12-31T19:23:34.917Z,48945.84
2023-12-31T19:26:01.354Z,48953.69
2023-12-31T19:28:27.811Z,48953.69
2023-12-31T19:30:54.316Z,48957.59
2023-12-31T19:33:20.926Z,48945.84
2023-12-31T19:35:47.382Z,48965.44
2023-12-31T19:38:13.968Z,48953.69
2023-12-31T19:40:40.421Z,48949.78
2023-12-31T19:43:17.707Z,48941.94
2023-12-31T19:45:49.673Z,48945.84
2023-12-31T19:48:18.014Z,48947.81
2023-12-31T19:50:44.757Z,48945.84
2023-12-31T19:53:11.314Z,48963.50
2023-12-31T19:55:40.005Z,48949.78
2023-12-31T19:58:06.592Z,48957.59
2023-12-31T20:00:33.112Z,48949.78
2023-12-31T20:02:59.590Z,48943.91
2023-12-31T20:05:26.092Z,48945.84
2023-12-31T20:07:54.018Z,48949.78
2023-12-31T20:10:22.461Z,48939.97
2023-12-31T20:12:49.088Z,48941.94
2023-12-31T20:15:15.649Z,48941.94
2023-12-31T20:17:43.380Z,48939.97
2023-12-31T20:20:10.866Z,48953.69
2023-12-31T20:22:37.459Z,48941.94
2023-12-31T20:25:04.292Z,48943.91
2023-12-31T20:27:30.794Z,48945.84
2023-12-31T20:29:57.205Z,48945.84
2023-12-31T20:32:23.798Z,48945.84
2023-12-31T20:34:55.744Z,48945.84
2023-12-31T20:37:22.234Z,48945.84
2023-12-31T20:39:53.482Z,48949.78
2023-12-31T20:42:22.803Z,48945.84
2023-12-31T20:44:50.222Z,48953.69
2023-12-31T20:47:16.629Z,48953.69
2023-12-31T20:49:44.514Z,48947.81
2023-12-31T20:52:17.133Z,48953.69
2023-12-31T20:54:44.082Z,48953.69
2023-12-31T20:57:12.657Z,48955.66
2023-12-31T20:59:42.000Z,48953.69
2023-12-31T21:02:09.523Z,48965.44
2023-12-31T21:04:36.411Z,48973.28
2023-12-31T21:07:03.763Z,48969.38
2023-12-31T21:09:30.197Z,48965.44
2023-12-31T21:11:56.597Z,48959.56
2023-12-31T21:14:23.072Z,48957.59
2023-12-31T21:16:49.725Z,48973.28
2023-12-31T21:19:16.342Z,48969.38
2023-12-31T21:21:43.162Z,48981.13
2023-12-31T21:24:14.027Z,48977.19
2023-12-31T21:26:41.639Z,48977.19
2023-12-31T21:29:12.375Z,48975.25
2023-12-31T21:31:38.990Z,48981.13
2023-12-31T21:34:05.660Z,48975.25
2023-12-31T21:36:32.256Z,48983.06
2023-12-31T21:38:58.703Z,48973.28
2023-12-31T21:41:25.738Z,48975.25
2023-12-31T21:43:52.235Z,48965.44
2023-12-31T21:46:18.769Z,48971.31
2023-12-31T21:48:45.279Z,48977.19
2023-12-31T21:51:13.097Z,48969.38
2023-12-31T21:53:39.508Z,48973.28
2023-12-31T21:56:21.649Z,48969.38
2023-12-31T21:58:53.583Z,48965.44
2023-12-31T23:29:55.867Z,49004.63
2023-12-31T23:55:22.366Z,49032.06
2023-12-31T23:57:50.667Z,49024.22
